sensor_id;sensor_type;location;lat;lon;timestamp;P1;durP1;ratioP1;P2;durP2;ratioP2
4517;SDS011;2271;49.464;11.070;2023-12-04T00:00:03;20.17;;;10.23;;
4517;SDS011;2271;49.464;11.070;2023-12-04T00:02:29;16.53;;;10.70;;
4517;SDS011;2271;49.464;11.070;2023-12-04T00:04:55;18.37;;;11.30;;
4517;SDS011;2271;49.464;11.070;2023-12-04T00:07:21;18.07;;;10.63;;
4517;SDS011;2271;49.464;11.070;2023-12-04T00:09:46;18.63;;;11.70;;
4517;SDS011;2271;49.464;11.070;2023-12-04T00:12:12;20.13;;;12.03;;
4517;SDS011;2271;49.464;11.070;2023-12-04T00:14:37;17.87;;;10.37;;
4517;SDS011;2271;49.464;11.070;2023-12-04T00:17:03;21.10;;;12.27;;
4517;SDS011;2271;49.464;11.070;2023-12-04T00:19:29;20.77;;;12.03;;
4517;SDS011;2271;49.464;11.070;2023-12-04T00:21:54;18.37;;;10.37;;
4517;SDS011;2271;49.464;11.070;2023-12-04T00:24:20;17.73;;;10.63;;
4517;SDS011;2271;49.464;11.070;2023-12-04T00:26:46;20.37;;;10.87;;
4517;SDS011;2271;49.464;11.070;2023-12-04T00:29:11;19.57;;;10.93;;
4517;SDS011;2271;49.464;11.070;2023-12-04T00:31:37;18.27;;;10.13;;
4517;SDS011;2271;49.464;11.070;2023-12-04T00:34:02;18.27;;;11.27;;
4517;SDS011;2271;49.464;11.070;2023-12-04T00:36:28;19.03;;;11.63;;
4517;SDS011;2271;49.464;11.070;2023-12-04T00:38:54;16.87;;;10.37;;
4517;SDS011;2271;49.464;11.070;2023-12-04T00:41:19;19.97;;;9.73;;
4517;SDS011;2271;49.464;11.070;2023-12-04T00:43:45;16.43;;;9.33;;
4517;SDS011;2271;49.464;11.070;2023-12-04T00:46:11;14.40;;;10.07;;
4517;SDS011;2271;49.464;11.070;2023-12-04T00:48:36;17.77;;;10.47;;
4517;SDS011;2271;49.464;11.070;2023-12-04T00:51:02;17.37;;;10.00;;
4517;SDS011;2271;49.464;11.070;2023-12-04T00:53:28;15.40;;;10.50;;
4517;SDS011;2271;49.464;11.070;2023-12-04T00:55:53;18.10;;;10.20;;
4517;SDS011;2271;49.464;11.070;2023-12-04T00:58:19;15.83;;;10.00;;
4517;SDS011;2271;49.464;11.070;2023-12-04T01:00:45;16.80;;;10.27;;
4517;SDS011;2271;49.464;11.070;2023-12-04T01:03:13;16.83;;;11.33;;
4517;SDS011;2271;49.464;11.070;2023-12-04T01:05:38;14.47;;;9.73;;
4517;SDS011;2271;49.464;11.070;2023-12-04T01:08:04;15.57;;;10.57;;
4517;SDS011;2271;49.464;11.070;2023-12-04T01:10:30;18.57;;;10.30;;
4517;SDS011;2271;49.464;11.070;2023-12-04T01:12:55;18.63;;;10.30;;
4517;SDS011;2271;49.464;11.070;2023-12-04T01:15:21;16.37;;;10.17;;
4517;SDS011;2271;49.464;11.070;2023-12-04T01:17:48;15.17;;;9.17;;
4517;SDS011;2271;49.464;11.070;2023-12-04T01:20:14;18.13;;;10.80;;
4517;SDS011;2271;49.464;11.070;2023-12-04T01:22:40;17.27;;;10.17;;
4517;SDS011;2271;49.464;11.070;2023-12-04T01:25:06;17.07;;;10.07;;
4517;SDS011;2271;49.464;11.070;2023-12-04T01:27:32;22.03;;;12.30;;
4517;SDS011;2271;49.464;11.070;2023-12-04T01:30:00;15.67;;;10.17;;
4517;SDS011;2271;49.464;11.070;2023-12-04T01:32:26;17.07;;;10.43;;
4517;SDS011;2271;49.464;11.070;2023-12-04T01:34:51;18.07;;;10.57;;
4517;SDS011;2271;49.464;11.070;2023-12-04T01:37:17;14.53;;;9.87;;
4517;SDS011;2271;49.464;11.070;2023-12-04T01:39:43;16.83;;;9.93;;
4517;SDS011;2271;49.464;11.070;2023-12-04T01:42:08;18.73;;;10.73;;
4517;SDS011;2271;49.464;11.070;2023-12-04T01:44:34;19.37;;;9.73;;
4517;SDS011;2271;49.464;11.070;2023-12-04T01:47:00;20.23;;;11.10;;
4517;SDS011;2271;49.464;11.070;2023-12-04T01:49:27;15.40;;;9.97;;
4517;SDS011;2271;49.464;11.070;2023-12-04T01:51:52;17.47;;;10.57;;
4517;SDS011;2271;49.464;11.070;2023-12-04T01:54:19;15.40;;;9.90;;
4517;SDS011;2271;49.464;11.070;2023-12-04T01:56:45;15.87;;;10.63;;
4517;SDS011;2271;49.464;11.070;2023-12-04T01:59:12;16.23;;;10.17;;
4517;SDS011;2271;49.464;11.070;2023-12-04T02:01:37;18.23;;;10.80;;
4517;SDS011;2271;49.464;11.070;2023-12-04T02:04:05;17.53;;;10.50;;
4517;SDS011;2271;49.464;11.070;2023-12-04T02:06:31;19.17;;;10.83;;
4517;SDS011;2271;49.464;11.070;2023-12-04T02:08:57;18.37;;;11.40;;
4517;SDS011;2271;49.464;11.070;2023-12-04T02:11:22;13.07;;;9.17;;
4517;SDS011;2271;49.464;11.070;2023-12-04T02:13:48;18.10;;;11.13;;
4517;SDS011;2271;49.464;11.070;2023-12-04T02:16:14;18.10;;;10.97;;
4517;SDS011;2271;49.464;11.070;2023-12-04T02:18:42;16.57;;;10.70;;
4517;SDS011;2271;49.464;11.070;2023-12-04T02:21:08;16.03;;;9.67;;
4517;SDS011;2271;49.464;11.070;2023-12-04T02:23:34;15.57;;;9.90;;
4517;SDS011;2271;49.464;11.070;2023-12-04T02:26:01;15.53;;;11.37;;
4517;SDS011;2271;49.464;11.070;2023-12-04T02:28:31;14.43;;;9.93;;
4517;SDS011;2271;49.464;11.070;2023-12-04T02:30:58;17.57;;;9.63;;
4517;SDS011;2271;49.464;11.070;2023-12-04T02:33:25;15.43;;;10.37;;
4517;SDS011;2271;49.464;11.070;2023-12-04T02:35:52;17.80;;;9.60;;
4517;SDS011;2271;49.464;11.070;2023-12-04T02:38:19;16.17;;;10.40;;
4517;SDS011;2271;49.464;11.070;2023-12-04T02:40:46;14.03;;;8.93;;
4517;SDS011;2271;49.464;11.070;2023-12-04T02:43:11;16.73;;;10.00;;
4517;SDS011;2271;49.464;11.070;2023-12-04T02:45:37;17.27;;;10.43;;
4517;SDS011;2271;49.464;11.070;2023-12-04T02:48:03;16.93;;;9.90;;
4517;SDS011;2271;49.464;11.070;2023-12-04T02:50:28;12.73;;;8.90;;
4517;SDS011;2271;49.464;11.070;2023-12-04T02:52:54;16.83;;;9.90;;
4517;SDS011;2271;49.464;11.070;2023-12-04T02:55:19;17.63;;;10.87;;
4517;SDS011;2271;49.464;11.070;2023-12-04T02:57:45;12.93;;;9.07;;
4517;SDS011;2271;49.464;11.070;2023-12-04T03:00:11;16.67;;;9.73;;
4517;SDS011;2271;49.464;11.070;2023-12-04T03:02:37;14.00;;;9.90;;
4517;SDS011;2271;49.464;11.070;2023-12-04T03:05:02;18.17;;;10.10;;
4517;SDS011;2271;49.464;11.070;2023-12-04T03:07:28;15.43;;;8.73;;
4517;SDS011;2271;49.464;11.070;2023-12-04T03:09:54;15.77;;;9.77;;
4517;SDS011;2271;49.464;11.070;2023-12-04T03:12:19;16.50;;;9.87;;
4517;SDS011;2271;49.464;11.070;2023-12-04T03:14:45;15.77;;;9.43;;
4517;SDS011;2271;49.464;11.070;2023-12-04T03:17:11;16.17;;;9.73;;
4517;SDS011;2271;49.464;11.070;2023-12-04T03:19:38;17.50;;;10.53;;
4517;SDS011;2271;49.464;11.070;2023-12-04T03:22:03;15.57;;;10.10;;
4517;SDS011;2271;49.464;11.070;2023-12-04T03:24:29;13.43;;;9.20;;
4517;SDS011;2271;49.464;11.070;2023-12-04T03:26:54;16.97;;;9.33;;
4517;SDS011;2271;49.464;11.070;2023-12-04T03:29:20;17.57;;;9.67;;
4517;SDS011;2271;49.464;11.070;2023-12-04T03:31:46;18.37;;;10.87;;
4517;SDS011;2271;49.464;11.070;2023-12-04T03:34:11;16.53;;;10.50;;
4517;SDS011;2271;49.464;11.070;2023-12-04T03:36:37;15.03;;;9.27;;
4517;SDS011;2271;49.464;11.070;2023-12-04T03:39:02;16.17;;;9.73;;
4517;SDS011;2271;49.464;11.070;2023-12-04T03:41:29;14.63;;;9.40;;
4517;SDS011;2271;49.464;11.070;2023-12-04T03:43:56;15.77;;;9.50;;
4517;SDS011;2271;49.464;11.070;2023-12-04T03:46:21;11.87;;;8.60;;
4517;SDS011;2271;49.464;11.070;2023-12-04T03:48:47;16.00;;;9.83;;
4517;SDS011;2271;49.464;11.070;2023-12-04T03:51:12;12.13;;;8.80;;
4517;SDS011;2271;49.464;11.070;2023-12-04T03:53:38;15.97;;;10.23;;
4517;SDS011;2271;49.464;11.070;2023-12-04T03:56:04;15.87;;;8.80;;
4517;SDS011;2271;49.464;11.070;2023-12-04T03:58:29;16.63;;;11.20;;
4517;SDS011;2271;49.464;11.070;2023-12-04T04:00:55;12.90;;;9.07;;
4517;SDS011;2271;49.464;11.070;2023-12-04T04:03:21;19.07;;;10.47;;
4517;SDS011;2271;49.464;11.070;2023-12-04T04:05:46;15.43;;;8.93;;
4517;SDS011;2271;49.464;11.070;2023-12-04T04:08:12;16.63;;;10.33;;
4517;SDS011;2271;49.464;11.070;2023-12-04T04:10:37;14.37;;;9.53;;
4517;SDS011;2271;49.464;11.070;2023-12-04T04:13:03;13.87;;;8.97;;
4517;SDS011;2271;49.464;11.070;2023-12-04T04:15:28;16.67;;;9.20;;
4517;SDS011;2271;49.464;11.070;2023-12-04T04:17:54;16.07;;;9.23;;
4517;SDS011;2271;49.464;11.070;2023-12-04T04:20:20;12.23;;;8.13;;
4517;SDS011;2271;49.464;11.070;2023-12-04T04:22:47;13.40;;;8.73;;
4517;SDS011;2271;49.464;11.070;2023-12-04T04:25:13;17.13;;;10.03;;
4517;SDS011;2271;49.464;11.070;2023-12-04T04:27:39;13.63;;;8.70;;
4517;SDS011;2271;49.464;11.070;2023-12-04T04:30:05;15.87;;;9.83;;
4517;SDS011;2271;49.464;11.070;2023-12-04T04:32:31;13.13;;;9.33;;
4517;SDS011;2271;49.464;11.070;2023-12-04T04:34:56;15.73;;;9.50;;
4517;SDS011;2271;49.464;11.070;2023-12-04T04:37:22;18.13;;;10.03;;
4517;SDS011;2271;49.464;11.070;2023-12-04T04:39:48;16.10;;;9.67;;
4517;SDS011;2271;49.464;11.070;2023-12-04T04:42:14;11.17;;;7.73;;
4517;SDS011;2271;49.464;11.070;2023-12-04T04:44:39;13.30;;;8.90;;
4517;SDS011;2271;49.464;11.070;2023-12-04T04:47:06;16.40;;;9.50;;
4517;SDS011;2271;49.464;11.070;2023-12-04T04:49:32;12.63;;;9.00;;
4517;SDS011;2271;49.464;11.070;2023-12-04T04:51:58;12.87;;;8.97;;
4517;SDS011;2271;49.464;11.070;2023-12-04T04:54:23;16.00;;;9.73;;
4517;SDS011;2271;49.464;11.070;2023-12-04T04:56:49;13.97;;;8.10;;
4517;SDS011;2271;49.464;11.070;2023-12-04T04:59:16;14.87;;;8.67;;
4517;SDS011;2271;49.464;11.070;2023-12-04T05:01:41;13.57;;;8.37;;
4517;SDS011;2271;49.464;11.070;2023-12-04T05:04:08;14.90;;;9.10;;
4517;SDS011;2271;49.464;11.070;2023-12-04T05:06:33;11.07;;;7.40;;
4517;SDS011;2271;49.464;11.070;2023-12-04T05:08:59;14.43;;;9.13;;
4517;SDS011;2271;49.464;11.070;2023-12-04T05:11:25;11.37;;;6.60;;
4517;SDS011;2271;49.464;11.070;2023-12-04T05:13:50;12.57;;;9.30;;
4517;SDS011;2271;49.464;11.070;2023-12-04T05:16:16;11.23;;;8.57;;
4517;SDS011;2271;49.464;11.070;2023-12-04T05:18:41;15.43;;;8.10;;
4517;SDS011;2271;49.464;11.070;2023-12-04T05:21:08;11.33;;;7.83;;
4517;SDS011;2271;49.464;11.070;2023-12-04T05:23:36;16.20;;;8.27;;
4517;SDS011;2271;49.464;11.070;2023-12-04T05:26:02;19.07;;;9.03;;
4517;SDS011;2271;49.464;11.070;2023-12-04T05:28:28;14.40;;;9.00;;
4517;SDS011;2271;49.464;11.070;2023-12-04T05:30:53;11.50;;;7.93;;
4517;SDS011;2271;49.464;11.070;2023-12-04T05:33:19;11.90;;;8.27;;
4517;SDS011;2271;49.464;11.070;2023-12-04T05:35:46;14.47;;;8.27;;
4517;SDS011;2271;49.464;11.070;2023-12-04T05:38:13;13.20;;;8.80;;
4517;SDS011;2271;49.464;11.070;2023-12-04T05:40:38;15.93;;;9.93;;
4517;SDS011;2271;49.464;11.070;2023-12-04T05:43:04;10.73;;;7.53;;
4517;SDS011;2271;49.464;11.070;2023-12-04T05:45:30;11.60;;;8.00;;
4517;SDS011;2271;49.464;11.070;2023-12-04T05:47:55;13.90;;;8.67;;
4517;SDS011;2271;49.464;11.070;2023-12-04T05:50:21;14.37;;;8.90;;
4517;SDS011;2271;49.464;11.070;2023-12-04T05:52:47;13.97;;;8.90;;
4517;SDS011;2271;49.464;11.070;2023-12-04T05:55:12;11.90;;;7.67;;
4517;SDS011;2271;49.464;11.070;2023-12-04T05:57:38;12.77;;;7.57;;
4517;SDS011;2271;49.464;11.070;2023-12-04T06:00:05;13.37;;;8.70;;
4517;SDS011;2271;49.464;11.070;2023-12-04T06:02:37;11.47;;;8.40;;
4517;SDS011;2271;49.464;11.070;2023-12-04T06:05:06;11.33;;;7.90;;
4517;SDS011;2271;49.464;11.070;2023-12-04T06:07:33;12.73;;;8.40;;
4517;SDS011;2271;49.464;11.070;2023-12-04T06:09:59;16.07;;;8.63;;
4517;SDS011;2271;49.464;11.070;2023-12-04T06:12:24;14.33;;;7.70;;
4517;SDS011;2271;49.464;11.070;2023-12-04T06:14:50;11.60;;;7.90;;
4517;SDS011;2271;49.464;11.070;2023-12-04T06:17:16;12.43;;;8.47;;
4517;SDS011;2271;49.464;11.070;2023-12-04T06:19:41;12.30;;;8.20;;
4517;SDS011;2271;49.464;11.070;2023-12-04T06:22:09;11.73;;;8.47;;
4517;SDS011;2271;49.464;11.070;2023-12-04T06:24:35;13.00;;;8.40;;
4517;SDS011;2271;49.464;11.070;2023-12-04T06:27:01;13.53;;;8.43;;
4517;SDS011;2271;49.464;11.070;2023-12-04T06:29:27;15.90;;;8.53;;
4517;SDS011;2271;49.464;11.070;2023-12-04T06:31:53;14.47;;;9.80;;
4517;SDS011;2271;49.464;11.070;2023-12-04T06:34:19;11.87;;;8.43;;
4517;SDS011;2271;49.464;11.070;2023-12-04T06:36:45;13.53;;;7.87;;
4517;SDS011;2271;49.464;11.070;2023-12-04T06:39:11;15.17;;;9.20;;
4517;SDS011;2271;49.464;11.070;2023-12-04T06:41:40;13.93;;;7.90;;
4517;SDS011;2271;49.464;11.070;2023-12-04T06:44:07;12.93;;;9.13;;
4517;SDS011;2271;49.464;11.070;2023-12-04T06:46:34;10.33;;;7.20;;
4517;SDS011;2271;49.464;11.070;2023-12-04T06:49:03;14.87;;;8.63;;
4517;SDS011;2271;49.464;11.070;2023-12-04T06:51:30;13.17;;;9.03;;
4517;SDS011;2271;49.464;11.070;2023-12-04T06:53:56;11.30;;;8.20;;
4517;SDS011;2271;49.464;11.070;2023-12-04T06:56:21;12.03;;;7.63;;
4517;SDS011;2271;49.464;11.070;2023-12-04T06:58:47;12.53;;;8.20;;
4517;SDS011;2271;49.464;11.070;2023-12-04T07:01:12;11.93;;;8.50;;
4517;SDS011;2271;49.464;11.070;2023-12-04T07:03:38;11.60;;;7.60;;
4517;SDS011;2271;49.464;11.070;2023-12-04T07:06:04;18.50;;;9.73;;
4517;SDS011;2271;49.464;11.070;2023-12-04T07:08:30;14.67;;;9.30;;
4517;SDS011;2271;49.464;11.070;2023-12-04T07:10:55;11.53;;;8.40;;
4517;SDS011;2271;49.464;11.070;2023-12-04T07:13:21;15.27;;;8.77;;
4517;SDS011;2271;49.464;11.070;2023-12-04T07:15:47;15.10;;;8.77;;
4517;SDS011;2271;49.464;11.070;2023-12-04T07:18:12;13.67;;;8.43;;
4517;SDS011;2271;49.464;11.070;2023-12-04T07:20:39;12.37;;;9.03;;
4517;SDS011;2271;49.464;11.070;2023-12-04T07:23:05;13.43;;;8.47;;
4517;SDS011;2271;49.464;11.070;2023-12-04T07:25:30;13.03;;;8.70;;
4517;SDS011;2271;49.464;11.070;2023-12-04T07:27:56;14.13;;;8.83;;
4517;SDS011;2271;49.464;11.070;2023-12-04T07:30:23;12.17;;;7.97;;
4517;SDS011;2271;49.464;11.070;2023-12-04T07:32:49;17.53;;;9.43;;
4517;SDS011;2271;49.464;11.070;2023-12-04T07:35:15;14.13;;;8.83;;
4517;SDS011;2271;49.464;11.070;2023-12-04T07:37:43;13.77;;;7.50;;
4517;SDS011;2271;49.464;11.070;2023-12-04T07:40:08;11.17;;;8.30;;
4517;SDS011;2271;49.464;11.070;2023-12-04T07:42:35;12.97;;;7.67;;
4517;SDS011;2271;49.464;11.070;2023-12-04T07:45:01;13.47;;;8.93;;
4517;SDS011;2271;49.464;11.070;2023-12-04T07:47:27;12.40;;;8.10;;
4517;SDS011;2271;49.464;11.070;2023-12-04T07:49:53;13.00;;;8.07;;
4517;SDS011;2271;49.464;11.070;2023-12-04T07:52:18;16.37;;;8.37;;
4517;SDS011;2271;49.464;11.070;2023-12-04T07:54:44;10.40;;;7.80;;
4517;SDS011;2271;49.464;11.070;2023-12-04T07:57:09;10.60;;;7.33;;
4517;SDS011;2271;49.464;11.070;2023-12-04T07:59:35;13.83;;;8.23;;
4517;SDS011;2271;49.464;11.070;2023-12-04T08:02:01;11.43;;;7.80;;
4517;SDS011;2271;49.464;11.070;2023-12-04T08:04:26;9.97;;;6.83;;
4517;SDS011;2271;49.464;11.070;2023-12-04T08:06:52;15.60;;;8.60;;
4517;SDS011;2271;49.464;11.070;2023-12-04T08:09:18;12.73;;;8.10;;
4517;SDS011;2271;49.464;11.070;2023-12-04T08:11:43;10.97;;;7.17;;
4517;SDS011;2271;49.464;11.070;2023-12-04T08:14:09;10.83;;;7.20;;
4517;SDS011;2271;49.464;11.070;2023-12-04T08:16:35;11.20;;;7.23;;
4517;SDS011;2271;49.464;11.070;2023-12-04T08:19:00;16.53;;;7.77;;
4517;SDS011;2271;49.464;11.070;2023-12-04T08:21:26;11.67;;;6.60;;
4517;SDS011;2271;49.464;11.070;2023-12-04T08:23:51;13.77;;;7.27;;
4517;SDS011;2271;49.464;11.070;2023-12-04T08:26:24;13.37;;;6.93;;
4517;SDS011;2271;49.464;11.070;2023-12-04T08:28:50;10.67;;;7.07;;
4517;SDS011;2271;49.464;11.070;2023-12-04T08:31:16;12.77;;;7.23;;
4517;SDS011;2271;49.464;11.070;2023-12-04T08:33:42;10.80;;;6.63;;
4517;SDS011;2271;49.464;11.070;2023-12-04T08:36:09;10.37;;;7.13;;
4517;SDS011;2271;49.464;11.070;2023-12-04T08:38:35;13.70;;;8.73;;
4517;SDS011;2271;49.464;11.070;2023-12-04T08:41:01;11.63;;;7.70;;
4517;SDS011;2271;49.464;11.070;2023-12-04T08:43:27;11.93;;;7.40;;
4517;SDS011;2271;49.464;11.070;2023-12-04T08:45:54;11.03;;;6.77;;
4517;SDS011;2271;49.464;11.070;2023-12-04T08:48:19;7.90;;;6.20;;
4517;SDS011;2271;49.464;11.070;2023-12-04T08:50:45;9.87;;;6.63;;
4517;SDS011;2271;49.464;11.070;2023-12-04T08:53:11;10.67;;;6.27;;
4517;SDS011;2271;49.464;11.070;2023-12-04T08:55:37;10.90;;;6.83;;
4517;SDS011;2271;49.464;11.070;2023-12-04T08:58:02;8.30;;;6.43;;
4517;SDS011;2271;49.464;11.070;2023-12-04T09:00:29;8.70;;;6.20;;
4517;SDS011;2271;49.464;11.070;2023-12-04T09:02:54;10.10;;;6.13;;
4517;SDS011;2271;49.464;11.070;2023-12-04T09:05:20;11.87;;;7.63;;
4517;SDS011;2271;49.464;11.070;2023-12-04T09:07:46;9.47;;;6.70;;
4517;SDS011;2271;49.464;11.070;2023-12-04T09:10:11;9.50;;;6.53;;
4517;SDS011;2271;49.464;11.070;2023-12-04T09:12:37;10.87;;;6.67;;
4517;SDS011;2271;49.464;11.070;2023-12-04T09:15:04;11.27;;;7.87;;
4517;SDS011;2271;49.464;11.070;2023-12-04T09:17:30;8.40;;;6.37;;
4517;SDS011;2271;49.464;11.070;2023-12-04T09:19:56;11.87;;;6.13;;
4517;SDS011;2271;49.464;11.070;2023-12-04T09:22:22;8.37;;;6.00;;
4517;SDS011;2271;49.464;11.070;2023-12-04T09:24:47;8.10;;;5.63;;
4517;SDS011;2271;49.464;11.070;2023-12-04T09:27:13;8.73;;;5.93;;
4517;SDS011;2271;49.464;11.070;2023-12-04T09:29:40;9.73;;;6.13;;
4517;SDS011;2271;49.464;11.070;2023-12-04T09:32:06;9.10;;;6.30;;
4517;SDS011;2271;49.464;11.070;2023-12-04T09:34:31;8.57;;;5.93;;
4517;SDS011;2271;49.464;11.070;2023-12-04T09:36:57;11.70;;;6.60;;
4517;SDS011;2271;49.464;11.070;2023-12-04T09:39:23;8.60;;;5.30;;
4517;SDS011;2271;49.464;11.070;2023-12-04T09:41:48;6.23;;;4.73;;
4517;SDS011;2271;49.464;11.070;2023-12-04T09:44:15;6.20;;;4.63;;
4517;SDS011;2271;49.464;11.070;2023-12-04T09:46:42;6.43;;;4.47;;
4517;SDS011;2271;49.464;11.070;2023-12-04T09:49:08;7.30;;;5.37;;
4517;SDS011;2271;49.464;11.070;2023-12-04T09:51:33;7.23;;;5.43;;
4517;SDS011;2271;49.464;11.070;2023-12-04T09:54:00;8.00;;;4.40;;
4517;SDS011;2271;49.464;11.070;2023-12-04T09:56:28;8.00;;;5.17;;
4517;SDS011;2271;49.464;11.070;2023-12-04T09:58:57;8.83;;;4.97;;
4517;SDS011;2271;49.464;11.070;2023-12-04T10:01:28;6.23;;;4.13;;
4517;SDS011;2271;49.464;11.070;2023-12-04T10:03:55;4.57;;;3.73;;
4517;SDS011;2271;49.464;11.070;2023-12-04T10:06:22;8.10;;;4.80;;
4517;SDS011;2271;49.464;11.070;2023-12-04T10:08:51;6.47;;;4.23;;
4517;SDS011;2271;49.464;11.070;2023-12-04T10:11:16;5.57;;;4.70;;
4517;SDS011;2271;49.464;11.070;2023-12-04T10:13:42;4.97;;;4.10;;
4517;SDS011;2271;49.464;11.070;2023-12-04T10:16:08;5.50;;;4.40;;
4517;SDS011;2271;49.464;11.070;2023-12-04T10:18:34;7.27;;;4.20;;
4517;SDS011;2271;49.464;11.070;2023-12-04T10:21:00;7.43;;;4.83;;
4517;SDS011;2271;49.464;11.070;2023-12-04T10:23:37;6.07;;;4.17;;
4517;SDS011;2271;49.464;11.070;2023-12-04T10:26:04;5.47;;;3.83;;
4517;SDS011;2271;49.464;11.070;2023-12-04T10:28:32;6.07;;;4.37;;
4517;SDS011;2271;49.464;11.070;2023-12-04T10:30:57;5.40;;;4.00;;
4517;SDS011;2271;49.464;11.070;2023-12-04T10:33:24;5.70;;;4.20;;
4517;SDS011;2271;49.464;11.070;2023-12-04T10:35:53;8.47;;;5.27;;
4517;SDS011;2271;49.464;11.070;2023-12-04T10:38:20;5.37;;;4.10;;
4517;SDS011;2271;49.464;11.070;2023-12-04T10:40:46;7.13;;;4.27;;
4517;SDS011;2271;49.464;11.070;2023-12-04T10:43:14;5.93;;;4.57;;
4517;SDS011;2271;49.464;11.070;2023-12-04T10:45:41;5.60;;;3.93;;
4517;SDS011;2271;49.464;11.070;2023-12-04T10:48:08;8.07;;;4.17;;
4517;SDS011;2271;49.464;11.070;2023-12-04T10:50:38;6.33;;;4.40;;
4517;SDS011;2271;49.464;11.070;2023-12-04T10:53:06;8.17;;;4.20;;
4517;SDS011;2271;49.464;11.070;2023-12-04T10:55:33;5.00;;;3.83;;
4517;SDS011;2271;49.464;11.070;2023-12-04T10:57:59;9.17;;;5.27;;
4517;SDS011;2271;49.464;11.070;2023-12-04T11:00:33;6.77;;;4.17;;
4517;SDS011;2271;49.464;11.070;2023-12-04T11:03:04;6.47;;;3.93;;
4517;SDS011;2271;49.464;11.070;2023-12-04T11:05:33;5.27;;;3.83;;
4517;SDS011;2271;49.464;11.070;2023-12-04T11:08:05;5.90;;;3.43;;
4517;SDS011;2271;49.464;11.070;2023-12-04T11:10:33;5.97;;;4.20;;
4517;SDS011;2271;49.464;11.070;2023-12-04T11:13:10;6.27;;;4.47;;
4517;SDS011;2271;49.464;11.070;2023-12-04T11:15:40;5.20;;;3.37;;
4517;SDS011;2271;49.464;11.070;2023-12-04T11:18:09;5.10;;;3.67;;
4517;SDS011;2271;49.464;11.070;2023-12-04T11:20:41;5.00;;;3.33;;
4517;SDS011;2271;49.464;11.070;2023-12-04T11:23:15;5.10;;;3.30;;
4517;SDS011;2271;49.464;11.070;2023-12-04T11:25:42;9.93;;;3.93;;
4517;SDS011;2271;49.464;11.070;2023-12-04T11:28:09;5.70;;;3.27;;
4517;SDS011;2271;49.464;11.070;2023-12-04T11:30:36;5.17;;;2.80;;
4517;SDS011;2271;49.464;11.070;2023-12-04T11:33:04;5.67;;;3.57;;
4517;SDS011;2271;49.464;11.070;2023-12-04T11:35:30;4.57;;;3.57;;
4517;SDS011;2271;49.464;11.070;2023-12-04T11:37:58;6.27;;;4.20;;
4517;SDS011;2271;49.464;11.070;2023-12-04T11:40:23;6.70;;;4.03;;
4517;SDS011;2271;49.464;11.070;2023-12-04T11:42:50;3.70;;;3.20;;
4517;SDS011;2271;49.464;11.070;2023-12-04T11:45:20;6.53;;;3.87;;
4517;SDS011;2271;49.464;11.070;2023-12-04T11:50:21;6.77;;;3.87;;
4517;SDS011;2271;49.464;11.070;2023-12-04T11:52:50;9.43;;;4.23;;
4517;SDS011;2271;49.464;11.070;2023-12-04T11:55:17;7.57;;;4.03;;
4517;SDS011;2271;49.464;11.070;2023-12-04T11:57:45;7.53;;;5.10;;
4517;SDS011;2271;49.464;11.070;2023-12-04T12:05:20;12.53;;;4.53;;
4517;SDS011;2271;49.464;11.070;2023-12-04T12:07:46;5.07;;;4.13;;
4517;SDS011;2271;49.464;11.070;2023-12-04T12:10:13;8.87;;;4.00;;
4517;SDS011;2271;49.464;11.070;2023-12-04T12:12:45;6.50;;;3.87;;
4517;SDS011;2271;49.464;11.070;2023-12-04T12:15:12;7.30;;;4.00;;
4517;SDS011;2271;49.464;11.070;2023-12-04T12:17:38;5.63;;;4.50;;
4517;SDS011;2271;49.464;11.070;2023-12-04T12:20:08;8.33;;;4.43;;
4517;SDS011;2271;49.464;11.070;2023-12-04T12:22:36;4.37;;;3.97;;
4517;SDS011;2271;49.464;11.070;2023-12-04T12:25:06;10.93;;;5.20;;
4517;SDS011;2271;49.464;11.070;2023-12-04T12:27:33;9.30;;;4.53;;
4517;SDS011;2271;49.464;11.070;2023-12-04T12:29:59;5.67;;;4.63;;
4517;SDS011;2271;49.464;11.070;2023-12-04T12:32:25;6.27;;;3.53;;
4517;SDS011;2271;49.464;11.070;2023-12-04T12:34:51;11.60;;;5.13;;
4517;SDS011;2271;49.464;11.070;2023-12-04T12:37:17;9.40;;;4.57;;
4517;SDS011;2271;49.464;11.070;2023-12-04T12:39:44;15.43;;;4.43;;
4517;SDS011;2271;49.464;11.070;2023-12-04T12:42:10;7.67;;;4.30;;
4517;SDS011;2271;49.464;11.070;2023-12-04T12:44:39;9.23;;;4.87;;
4517;SDS011;2271;49.464;11.070;2023-12-04T12:47:05;9.53;;;5.23;;
4517;SDS011;2271;49.464;11.070;2023-12-04T12:49:32;8.23;;;5.03;;
4517;SDS011;2271;49.464;11.070;2023-12-04T12:51:59;13.87;;;4.67;;
4517;SDS011;2271;49.464;11.070;2023-12-04T12:54:25;7.10;;;4.20;;
4517;SDS011;2271;49.464;11.070;2023-12-04T12:56:51;16.43;;;5.03;;
4517;SDS011;2271;49.464;11.070;2023-12-04T12:59:16;5.70;;;4.20;;
4517;SDS011;2271;49.464;11.070;2023-12-04T13:01:45;5.90;;;4.20;;
4517;SDS011;2271;49.464;11.070;2023-12-04T13:04:13;19.00;;;4.57;;
4517;SDS011;2271;49.464;11.070;2023-12-04T13:06:42;5.63;;;4.10;;
4517;SDS011;2271;49.464;11.070;2023-12-04T13:09:07;6.87;;;4.43;;
4517;SDS011;2271;49.464;11.070;2023-12-04T13:11:33;10.30;;;3.87;;
4517;SDS011;2271;49.464;11.070;2023-12-04T13:13:59;4.53;;;3.97;;
4517;SDS011;2271;49.464;11.070;2023-12-04T13:16:25;8.30;;;5.40;;
4517;SDS011;2271;49.464;11.070;2023-12-04T13:18:51;6.10;;;4.97;;
4517;SDS011;2271;49.464;11.070;2023-12-04T13:21:18;6.13;;;3.70;;
4517;SDS011;2271;49.464;11.070;2023-12-04T13:23:44;5.70;;;4.17;;
4517;SDS011;2271;49.464;11.070;2023-12-04T13:26:09;12.90;;;6.67;;
4517;SDS011;2271;49.464;11.070;2023-12-04T13:28:36;7.13;;;5.20;;
4517;SDS011;2271;49.464;11.070;2023-12-04T13:31:03;9.97;;;5.27;;
4517;SDS011;2271;49.464;11.070;2023-12-04T13:33:29;19.67;;;5.73;;
4517;SDS011;2271;49.464;11.070;2023-12-04T13:35:55;19.23;;;6.40;;
4517;SDS011;2271;49.464;11.070;2023-12-04T13:38:21;11.30;;;5.57;;
4517;SDS011;2271;49.464;11.070;2023-12-04T13:40:46;10.97;;;4.97;;
4517;SDS011;2271;49.464;11.070;2023-12-04T13:43:25;11.07;;;5.40;;
4517;SDS011;2271;49.464;11.070;2023-12-04T13:46:10;7.57;;;4.40;;
4517;SDS011;2271;49.464;11.070;2023-12-04T13:48:36;7.43;;;4.83;;
4517;SDS011;2271;49.464;11.070;2023-12-04T13:51:05;8.07;;;4.97;;
4517;SDS011;2271;49.464;11.070;2023-12-04T13:53:32;5.30;;;4.30;;
4517;SDS011;2271;49.464;11.070;2023-12-04T13:55:58;8.37;;;4.47;;
4517;SDS011;2271;49.464;11.070;2023-12-04T13:58:26;8.90;;;5.30;;
4517;SDS011;2271;49.464;11.070;2023-12-04T14:01:01;5.10;;;3.50;;
4517;SDS011;2271;49.464;11.070;2023-12-04T14:03:37;6.00;;;4.60;;
4517;SDS011;2271;49.464;11.070;2023-12-04T14:06:03;6.77;;;4.90;;
4517;SDS011;2271;49.464;11.070;2023-12-04T14:08:29;6.67;;;3.93;;
4517;SDS011;2271;49.464;11.070;2023-12-04T14:10:55;6.13;;;3.93;;
4517;SDS011;2271;49.464;11.070;2023-12-04T14:13:20;5.70;;;3.73;;
4517;SDS011;2271;49.464;11.070;2023-12-04T14:15:46;5.10;;;3.67;;
4517;SDS011;2271;49.464;11.070;2023-12-04T14:18:12;5.67;;;4.10;;
4517;SDS011;2271;49.464;11.070;2023-12-04T14:20:38;6.37;;;3.87;;
4517;SDS011;2271;49.464;11.070;2023-12-04T14:23:03;9.03;;;4.67;;
4517;SDS011;2271;49.464;11.070;2023-12-04T14:25:30;5.63;;;3.83;;
4517;SDS011;2271;49.464;11.070;2023-12-04T14:27:55;5.27;;;4.60;;
4517;SDS011;2271;49.464;11.070;2023-12-04T14:30:21;13.00;;;4.30;;
4517;SDS011;2271;49.464;11.070;2023-12-04T14:32:46;15.13;;;4.30;;
4517;SDS011;2271;49.464;11.070;2023-12-04T14:35:13;7.33;;;3.67;;
4517;SDS011;2271;49.464;11.070;2023-12-04T14:37:39;10.13;;;3.67;;
4517;SDS011;2271;49.464;11.070;2023-12-04T14:40:05;4.87;;;3.70;;
4517;SDS011;2271;49.464;11.070;2023-12-04T14:42:31;5.13;;;4.00;;
4517;SDS011;2271;49.464;11.070;2023-12-04T14:44:57;6.20;;;4.43;;
4517;SDS011;2271;49.464;11.070;2023-12-04T14:47:22;5.30;;;4.33;;
4517;SDS011;2271;49.464;11.070;2023-12-04T14:49:48;10.53;;;5.07;;
4517;SDS011;2271;49.464;11.070;2023-12-04T14:52:18;6.13;;;4.03;;